Time;durP1;ratioP1;P1;durP2;ratioP2;P2;SDS_P1;SDS_P2;PMS_P1;PMS_P2;Temp;Humidity;BMP_temperature;BMP_pressure;BME280_temperature;BME280_humidity;BME280_pressure;Samples;Min_cycle;Max_cycle;Signal;HPM_P1;HPM_P2
2022/03/20 00:00:53;;;;;;;;;;;;;;;24.52;36.54;94987.59;4974983;28;8761;-57
2022/03/20 00:03:21;;;;;;;;;;;;;;;24.51;36.85;94978.59;4971680;28;9710;-57
2022/03/20 00:05:49;;;;;;;;;;;;;;;24.52;36.79;94982.84;4968092;28;8966;-61
2022/03/20 00:08:17;;;;;;;;;;;;;;;24.52;37.03;94991.09;4963593;28;9110;-61
2022/03/20 00:10:50;;;;;;;;;;;;;;;24.49;36.77;94978.31;4980732;28;9165;-61
2022/03/20 00:13:19;;;;;;;;;;;;;;;24.49;36.97;94978.31;4969292;28;9098;-61
2022/03/20 00:15:47;;;;;;;;;;;;;;;24.47;36.48;94975.31;4960707;28;7257;-62
2022/03/20 00:18:20;;;;;;;;;;;;;;;24.49;36.55;94986.56;4969913;28;7127;-61
2022/03/20 00:20:52;;;;;;;;;;;;;;;24.49;36.65;94997.56;4979132;28;7723;-62
2022/03/20 00:23:19;;;;;;;;;;;;;;;24.50;36.56;94982.59;4984606;28;7509;-61
2022/03/20 00:25:46;;;;;;;;;;;;;;;24.51;36.45;94992.34;4969199;28;9703;-61
2022/03/20 00:28:16;;;;;;;;;;;;;;;24.50;36.88;94990.09;4984962;28;9080;-62
2022/03/20 00:30:44;;;;;;;;;;;;;;;24.48;36.71;94992.56;4967947;28;8242;-61
2022/03/20 00:33:10;;;;;;;;;;;;;;;24.51;36.75;94988.84;4968251;28;7200;-61
2022/03/20 00:35:37;;;;;;;;;;;;;;;24.48;36.39;94982.34;4985228;28;7274;-61
2022/03/20 00:38:07;;;;;;;;;;;;;;;24.51;36.61;94994.34;4985290;28;9314;-62
2022/03/20 00:40:46;;;;;;;;;;;;;;;24.51;37.07;94989.59;4988803;28;9527;-62
2022/03/20 00:43:13;;;;;;;;;;;;;;;24.50;36.00;94987.34;4980797;28;7121;-61
2022/03/20 00:45:39;;;;;;;;;;;;;;;24.50;36.38;94988.09;4973056;28;8967;-61
2022/03/20 00:48:37;;;;;;;;;;;;;;;24.49;36.72;94989.31;4972816;28;9212;-61
2022/03/20 00:51:06;;;;;;;;;;;;;;;24.49;36.54;94991.34;4982650;28;7269;-61
2022/03/20 00:53:32;;;;;;;;;;;;;;;24.48;36.64;94984.31;4969645;28;9208;-61
2022/03/20 00:55:58;;;;;;;;;;;;;;;24.48;36.38;94996.09;4973283;28;6874;-61
2022/03/20 00:58:24;;;;;;;;;;;;;;;24.48;36.90;94987.84;4971749;28;9443;-61
2022/03/20 01:00:50;;;;;;;;;;;;;;;24.44;36.54;94981.81;4972712;28;7233;-61
2022/03/20 01:03:16;;;;;;;;;;;;;;;24.48;37.04;94996.09;4978414;28;10139;-61
2022/03/20 01:05:46;;;;;;;;;;;;;;;24.49;36.09;94989.31;4973356;28;9266;-61
2022/03/20 01:08:12;;;;;;;;;;;;;;;24.46;36.57;94995.06;4982817;28;7439;-61
2022/03/20 01:10:44;;;;;;;;;;;;;;;24.47;36.40;94997.31;4989102;28;7392;-62
2022/03/20 01:13:16;;;;;;;;;;;;;;;24.48;36.29;94998.06;4972528;28;9239;-62
2022/03/20 01:15:43;;;;;;;;;;;;;;;24.48;36.29;94998.84;4980748;28;7541;-61
2022/03/20 01:18:08;;;;;;;;;;;;;;;24.45;36.34;94997.06;4981323;28;9102;-61
2022/03/20 01:20:41;;;;;;;;;;;;;;;24.45;36.37;94999.81;4955008;28;8915;-62
2022/03/20 01:23:12;;;;;;;;;;;;;;;24.46;36.29;95017.81;4987156;28;9236;-61
2022/03/20 01:25:40;;;;;;;;;;;;;;;24.44;36.72;95014.81;4970387;28;8759;-62
2022/03/20 01:28:07;;;;;;;;;;;;;;;24.43;36.25;94996.78;4967259;28;9173;-62
2022/03/20 01:30:33;;;;;;;;;;;;;;;24.45;36.22;95007.28;4963632;28;7433;-62
2022/03/20 01:32:59;;;;;;;;;;;;;;;24.45;36.54;94994.31;4979258;28;9158;-61
2022/03/20 01:35:28;;;;;;;;;;;;;;;24.45;36.58;94997.06;4968481;28;7180;-61
2022/03/20 01:37:53;;;;;;;;;;;;;;;24.45;36.29;94991.56;4983738;28;8779;-61
2022/03/20 01:40:19;;;;;;;;;;;;;;;24.45;36.51;94996.28;4968835;28;8167;-61
2022/03/20 01:42:46;;;;;;;;;;;;;;;24.43;35.84;94991.28;4977124;28;9141;-61
2022/03/20 01:45:21;;;;;;;;;;;;;;;24.43;36.15;94985.03;4967234;28;7226;-61
2022/03/20 01:47:55;;;;;;;;;;;;;;;24.38;36.33;94992.00;4967996;28;7073;-61
2022/03/20 01:50:25;;;;;;;;;;;;;;;24.38;36.41;94986.50;4986530;28;9461;-61
2022/03/20 01:52:54;;;;;;;;;;;;;;;24.39;36.10;94987.25;4988396;28;9096;-61
2022/03/20 01:55:24;;;;;;;;;;;;;;;24.38;36.05;94985.75;4972581;28;7448;-61
2022/03/20 01:57:54;;;;;;;;;;;;;;;24.37;36.47;94987.75;4972218;28;7623;-61
2022/03/20 02:00:24;;;;;;;;;;;;;;;24.37;36.02;94979.50;4972205;28;8924;-61
2022/03/20 02:02:52;;;;;;;;;;;;;;;24.35;36.13;94973.75;4992608;28;9089;-61
2022/03/20 02:05:19;;;;;;;;;;;;;;;24.34;36.20;94977.72;4974392;28;7048;-61
2022/03/20 02:07:47;;;;;;;;;;;;;;;24.33;36.62;94981.72;4988757;28;8987;-61
2022/03/20 02:10:15;;;;;;;;;;;;;;;24.33;36.49;94991.97;4970729;28;9462;-61
2022/03/20 02:12:42;;;;;;;;;;;;;;;24.32;36.16;94996.69;4973423;28;7009;-61
2022/03/20 02:15:18;;;;;;;;;;;;;;;24.31;35.93;94992.47;4970023;28;9460;-61
2022/03/20 02:17:58;;;;;;;;;;;;;;;24.32;36.43;94979.44;4988073;28;8322;-61
2022/03/20 02:20:34;;;;;;;;;;;;;;;24.32;36.08;94987.69;4980235;28;8750;-62
2022/03/20 02:23:01;;;;;;;;;;;;;;;24.33;36.32;94989.97;4991800;28;7618;-61
2022/03/20 02:25:30;;;;;;;;;;;;;;;24.31;36.08;94995.22;4981374;28;7283;-61
2022/03/20 02:27:57;;;;;;;;;;;;;;;24.33;36.24;94991.97;4990426;28;9212;-61
2022/03/20 02:30:27;;;;;;;;;;;;;;;24.32;36.37;94973.94;4971402;28;8889;-61
2022/03/20 02:32:56;;;;;;;;;;;;;;;24.31;36.24;94991.69;4970981;28;9747;-61
2022/03/20 02:35:25;;;;;;;;;;;;;;;24.31;36.14;94997.19;4987963;28;9040;-61
2022/03/20 02:37:52;;;;;;;;;;;;;;;24.31;36.25;94997.94;4971432;28;9729;-61
2022/03/20 02:40:24;;;;;;;;;;;;;;;24.30;35.95;94995.66;4979044;28;7465;-61
2022/03/20 02:42:53;;;;;;;;;;;;;;;24.30;36.25;94979.94;4968179;28;9379;-61
2022/03/20 02:45:22;;;;;;;;;;;;;;;24.29;36.38;94978.44;4987003;28;9140;-61
2022/03/20 02:47:51;;;;;;;;;;;;;;;24.30;36.18;94984.69;4970971;28;7063;-62
2022/03/20 02:50:29;;;;;;;;;;;;;;;24.29;36.26;94983.94;4986288;28;7246;-61
2022/03/20 02:53:04;;;;;;;;;;;;;;;24.30;36.49;94992.94;4957676;28;9040;-61
2022/03/20 02:55:32;;;;;;;;;;;;;;;24.30;36.27;94993.69;4972999;28;8725;-61
2022/03/20 02:58:03;;;;;;;;;;;;;;;24.29;36.34;94991.44;4970854;28;7247;-61
2022/03/20 03:00:32;;;;;;;;;;;;;;;24.29;36.33;94997.69;4979396;28;9611;-61
2022/03/20 03:03:01;;;;;;;;;;;;;;;24.30;35.54;94992.94;4978392;28;7068;-61
2022/03/20 03:05:29;;;;;;;;;;;;;;;24.31;36.05;94986.97;4970993;28;8898;-61
2022/03/20 03:10:57;;;;;;;;;;;;;;;24.30;36.39;94995.66;4971384;28;8837;-61
2022/03/20 03:13:39;;;;;;;;;;;;;;;24.29;36.09;94997.69;4965195;28;7630;-61
2022/03/20 03:16:13;;;;;;;;;;;;;;;24.30;35.95;95004.69;4970800;28;7042;-61
2022/03/20 03:18:46;;;;;;;;;;;;;;;24.30;36.27;95004.69;4985631;28;9040;-61
2022/03/20 03:21:15;;;;;;;;;;;;;;;24.30;35.96;95009.41;4972081;28;7020;-61
2022/03/20 03:23:44;;;;;;;;;;;;;;;24.30;36.03;95004.69;4986393;28;8860;-61
2022/03/20 03:26:11;;;;;;;;;;;;;;;24.29;36.09;95008.69;4969343;28;9383;-61
2022/03/20 03:28:38;;;;;;;;;;;;;;;24.27;35.84;95008.38;4985307;28;9057;-61
2022/03/20 03:31:07;;;;;;;;;;;;;;;24.28;36.18;95015.41;4976247;28;7222;-61
2022/03/20 03:33:34;;;;;;;;;;;;;;;24.24;36.07;95012.13;4987059;28;9353;-61
2022/03/20 03:36:01;;;;;;;;;;;;;;;24.30;35.57;95010.19;4970611;28;9251;-61
2022/03/20 03:38:36;;;;;;;;;;;;;;;24.29;35.78;95013.41;4985784;28;9562;-61
2022/03/20 03:41:06;;;;;;;;;;;;;;;24.26;36.03;95015.16;4986526;28;7095;-61
2022/03/20 03:43:32;;;;;;;;;;;;;;;24.28;36.03;95011.91;4969485;28;7266;-61
2022/03/20 03:45:58;;;;;;;;;;;;;;;24.29;36.25;95011.44;4970940;28;9269;-61
2022/03/20 03:48:25;;;;;;;;;;;;;;;24.29;35.77;95013.41;4968928;28;9067;-61
2022/03/20 03:50:53;;;;;;;;;;;;;;;24.30;35.80;95015.69;4968608;28;7320;-61
2022/03/20 03:53:22;;;;;;;;;;;;;;;24.29;35.90;95014.19;4974858;28;7065;-61
2022/03/20 03:55:48;;;;;;;;;;;;;;;24.30;35.80;95021.19;4971213;28;7225;-62
2022/03/20 03:58:14;;;;;;;;;;;;;;;24.27;35.73;95016.63;4969408;28;7719;-61
2022/03/20 04:00:43;;;;;;;;;;;;;;;24.29;36.01;95021.66;4966763;28;7051;-61
2022/03/20 04:03:11;;;;;;;;;;;;;;;24.27;36.04;95024.88;4968817;28;9353;-61
2022/03/20 04:05:38;;;;;;;;;;;;;;;24.28;35.85;95023.66;4970108;28;8585;-61
2022/03/20 04:08:07;;;;;;;;;;;;;;;24.28;35.77;95020.16;4969607;28;7942;-61
2022/03/20 04:10:34;;;;;;;;;;;;;;;24.29;35.93;95016.94;4968833;28;9015;-61
2022/03/20 04:13:01;;;;;;;;;;;;;;;24.29;35.67;95022.44;4985609;28;9222;-61
2022/03/20 04:15:27;;;;;;;;;;;;;;;24.28;35.84;95020.91;4984906;28;9435;-61
2022/03/20 04:17:53;;;;;;;;;;;;;;;24.26;35.57;95020.66;4981307;28;9032;-61
2022/03/20 04:20:28;;;;;;;;;;;;;;;24.28;36.10;95029.16;4984740;28;7220;-61
2022/03/20 04:25:43;;;;;;;;;;;;;;;24.22;35.76;95031.09;4971880;28;9239;-61
2022/03/20 04:28:10;;;;;;;;;;;;;;;24.25;35.75;95046.59;4972228;28;7070;-61
2022/03/20 04:30:38;;;;;;;;;;;;;;;24.24;35.77;95031.38;4972146;28;8720;-61
2022/03/20 04:33:09;;;;;;;;;;;;;;;24.26;35.47;95033.63;4969312;28;7709;-61
2022/03/20 04:35:36;;;;;;;;;;;;;;;24.25;35.48;95040.38;4971101;28;7059;-61
2022/03/20 04:38:04;;;;;;;;;;;;;;;24.24;35.53;95045.13;4965589;28;9269;-61
2022/03/20 04:40:38;;;;;;;;;;;;;;;24.25;35.65;95037.63;4980770;28;7269;-61
2022/03/20 04:43:11;;;;;;;;;;;;;;;;;;4973730;28;8760;-61
2022/03/20 04:45:54;;;;;;;;;;;;;;;24.20;35.67;95041.84;4973233;28;8727;-62
2022/03/20 04:59:24;;;;;;;;;;;;;;;24.21;35.26;95070.81;4973722;28;8806;-61
2022/03/20 05:01:50;;;;;;;;;;;;;;;24.23;35.87;95067.59;4989120;28;8696;-61
2022/03/20 05:04:24;;;;;;;;;;;;;;;24.23;35.26;95067.59;4988110;28;7228;-61
2022/03/20 05:06:52;;;;;;;;;;;;;;;24.23;35.91;95067.59;4999418;28;7969;-61
2022/03/20 05:14:57;;;;;;;;;;;;;;;24.21;35.88;95090.06;4985510;28;7620;-61
2022/03/20 05:17:28;;;;;;;;;;;;;;;24.21;35.42;95084.56;4956450;28;9023;-61
2022/03/20 05:19:55;;;;;;;;;;;;;;;24.22;35.75;95090.81;4988922;28;7488;-61
2022/03/20 05:22:32;;;;;;;;;;;;;;;24.21;35.58;95098.31;4971879;28;8570;-61
2022/03/20 05:25:01;;;;;;;;;;;;;;;24.22;36.02;95090.81;4973728;28;8754;-61
2022/03/20 05:27:28;;;;;;;;;;;;;;;24.21;35.56;95090.06;4988770;28;7459;-61
2022/03/20 05:29:59;;;;;;;;;;;;;;;24.21;35.71;95101.06;4960160;28;9039;-61
2022/03/20 05:32:37;;;;;;;;;;;;;;;24.21;36.17;95103.03;4973346;28;7381;-61
2022/03/20 05:35:08;;;;;;;;;;;;;;;24.21;35.50;95111.28;4971093;28;9483;-61
2022/03/20 05:37:37;;;;;;;;;;;;;;;24.21;35.28;95100.28;4969135;28;9521;-62
2022/03/20 05:40:07;;;;;;;;;;;;;;;24.21;35.48;95106.56;4966829;28;9378;-61
2022/03/20 05:42:33;;;;;;;;;;;;;;;24.21;35.84;95111.28;4981791;28;8768;-61
2022/03/20 05:45:02;;;;;;;;;;;;;;;24.21;35.92;95101.06;4984764;28;9669;-61
2022/03/20 05:47:35;;;;;;;;;;;;;;;24.20;35.72;95109.78;4978021;28;7500;-61
2022/03/20 05:50:03;;;;;;;;;;;;;;;24.22;35.33;95110.06;4966024;28;9055;-61
2022/03/20 05:52:33;;;;;;;;;;;;;;;24.21;35.48;95105.78;4967876;28;9163;-61
2022/03/20 05:55:01;;;;;;;;;;;;;;;24.20;35.35;95112.53;4967956;28;9161;-61
2022/03/20 06:00:20;;;;;;;;;;;;;;;24.21;35.93;95120.28;4963518;28;9503;-61
2022/03/20 06:02:48;;;;;;;;;;;;;;;24.22;35.29;95123.81;4987698;28;9464;-61
2022/03/20 06:05:22;;;;;;;;;;;;;;;24.21;35.26;95131.28;4988092;28;9582;-61
2022/03/20 06:08:15;;;;;;;;;;;;;;;24.20;35.80;95131.78;4975890;28;9171;-61
2022/03/20 06:11:06;;;;;;;;;;;;;;;24.20;35.60;95129.78;4954544;28;9441;-61
2022/03/20 06:13:35;;;;;;;;;;;;;;;24.20;35.46;95138.03;4970490;28;9419;-61
2022/03/20 06:16:06;;;;;;;;;;;;;;;24.20;34.98;95140.78;4969890;28;8833;-61
2022/03/20 06:18:42;;;;;;;;;;;;;;;24.20;35.66;95143.53;4967195;28;9185;-61
2022/03/20 06:21:39;;;;;;;;;;;;;;;24.21;35.33;95144.28;4970090;28;9132;-61
2022/03/20 06:24:15;;;;;;;;;;;;;;;24.21;35.67;95147.00;4859883;29;9115;-61
2022/03/20 06:26:41;;;;;;;;;;;;;;;24.16;35.60;95143.00;4874752;29;9329;-61
2022/03/20 06:29:08;;;;;;;;;;;;;;;24.20;35.46;95156.53;4870443;29;8774;-61
2022/03/20 06:31:45;;;;;;;;;;;;;;;24.20;35.24;95160.03;4875239;29;8024;-61
2022/03/20 06:34:26;;;;;;;;;;;;;;;24.19;35.67;95153.00;4874814;29;7856;-61
2022/03/20 06:37:10;;;;;;;;;;;;;;;24.20;35.72;95170.25;4859859;29;7247;-61
2022/03/20 06:39:37;;;;;;;;;;;;;;;24.17;35.30;95160.97;4860791;29;7756;-62
2022/03/20 06:42:13;;;;;;;;;;;;;;;24.21;35.56;95166.25;4875696;29;6978;-62
2022/03/20 06:44:51;;;;;;;;;;;;;;;24.21;35.22;95175.25;4860266;29;9371;-61
2022/03/20 06:47:21;;;;;;;;;;;;;;;24.16;35.58;95175.22;4862409;29;7335;-63
2022/03/20 06:49:59;;;;;;;;;;;;;;;24.18;35.11;95178.25;4889192;29;7319;-61
2022/03/20 06:52:29;;;;;;;;;;;;;;;24.18;35.01;95170.75;4874576;29;9231;-61
2022/03/20 06:54:57;;;;;;;;;;;;;;;24.18;35.27;95179.00;4894385;29;7364;-61
2022/03/20 06:57:26;;;;;;;;;;;;;;;24.18;35.10;95178.25;4883321;29;7825;-61
2022/03/20 06:59:55;;;;;;;;;;;;;;;24.17;35.45;95179.47;4916233;28;9286;-62
2022/03/20 07:02:21;;;;;;;;;;;;;;;24.18;36.00;95186.47;4971997;28;9147;-62
2022/03/20 07:04:55;;;;;;;;;;;;;;;24.18;35.69;95181.75;4975525;28;9389;-61
2022/03/20 07:07:23;;;;;;;;;;;;;;;24.17;35.35;95177.47;4972215;28;7967;-61
2022/03/20 07:09:54;;;;;;;;;;;;;;;24.20;34.86;95182.03;4970710;28;7615;-62
2022/03/20 07:12:24;;;;;;;;;;;;;;;24.16;35.44;95181.47;4982915;28;8967;-62
2022/03/20 07:14:50;;;;;;;;;;;;;;;24.13;35.51;95187.94;4961764;28;9119;-62
2022/03/20 07:17:24;;;;;;;;;;;;;;;24.14;34.98;95185.94;4968661;28;9160;-62
2022/03/20 07:19:50;;;;;;;;;;;;;;;24.08;35.05;95188.59;4969999;28;9074;-62
2022/03/20 07:22:19;;;;;;;;;;;;;;;24.13;34.91;95193.41;4973433;28;8009;-62
2022/03/20 07:24:45;;;;;;;;;;;;;;;24.14;35.43;95194.91;4969952;28;7225;-62
2022/03/20 07:29:57;;;;;;;;;;;;;;;24.17;34.52;95206.94;4968752;28;9269;-62
2022/03/20 07:32:30;;;;;;;;;;;;;;;24.18;34.92;95202.97;4971973;28;7148;-62
2022/03/20 07:34:58;;;;;;;;;;;;;;;24.20;34.99;95203.25;4972302;28;7005;-61
2022/03/20 07:37:26;;;;;;;;;;;;;;;24.21;34.84;95207.50;4976903;28;9161;-62
2022/03/20 07:39:54;;;;;;;;;;;;;;;24.21;35.02;95202.00;4974271;28;7134;-62
2022/03/20 07:42:26;;;;;;;;;;;;;;;24.21;34.82;95211.00;4976905;28;9324;-62
2022/03/20 07:44:55;;;;;;;;;;;;;;;24.21;34.66;95202.75;4985800;28;7009;-62
2022/03/20 07:47:22;;;;;;;;;;;;;;;24.22;34.94;95204.28;4969086;28;7219;-62
2022/03/20 07:49:50;;;;;;;;;;;;;;;24.23;34.85;95197.53;4975563;28;9753;-62
2022/03/20 07:52:16;;;;;;;;;;;;;;;24.24;34.97;95204.56;4974455;28;7058;-62
2022/03/20 07:54:45;;;;;;;;;;;;;;;24.26;34.76;95198.56;4981134;28;9264;-62
2022/03/20 07:57:11;;;;;;;;;;;;;;;24.26;34.90;95202.06;4970008;28;9875;-61
2022/03/20 07:59:37;;;;;;;;;;;;;;;24.27;34.71;95200.81;4970083;28;7858;-61
2022/03/20 08:02:06;;;;;;;;;;;;;;;24.29;34.56;95194.84;4981769;28;7088;-61
2022/03/20 08:04:32;;;;;;;;;;;;;;;24.29;34.82;95209.38;4969263;28;8747;-61
2022/03/20 08:07:02;;;;;;;;;;;;;;;24.29;34.94;95212.13;4979656;28;7013;-61
2022/03/20 08:09:29;;;;;;;;;;;;;;;24.30;34.30;95208.13;4962662;28;8898;-61
2022/03/20 08:11:55;;;;;;;;;;;;;;;24.29;34.64;95212.13;4970414;28;7079;-61
2022/03/20 08:14:28;;;;;;;;;;;;;;;24.31;34.46;95215.13;4972351;28;9066;-61
2022/03/20 08:16:55;;;;;;;;;;;;;;;24.31;34.97;95217.88;4968636;28;8904;-61
2022/03/20 08:19:23;;;;;;;;;;;;;;;24.33;35.26;95218.16;4969075;28;9186;-61
2022/03/20 08:21:49;;;;;;;;;;;;;;;24.30;34.71;95213.63;4962275;28;7070;-61
2022/03/20 08:24:16;;;;;;;;;;;;;;;24.34;34.88;95225.16;4965501;28;8679;-61
2022/03/20 08:26:44;;;;;;;;;;;;;;;24.38;35.02;95225.69;4966502;28;9384;-60
2022/03/20 08:29:12;;;;;;;;;;;;;;;24.39;34.41;95223.72;4968711;28;7052;-61
2022/03/20 08:31:44;;;;;;;;;;;;;;;24.39;35.00;95232.72;4986155;28;7357;-61
2022/03/20 08:34:11;;;;;;;;;;;;;;;24.39;35.22;95232.72;4971317;28;9229;-61
2022/03/20 08:36:38;;;;;;;;;;;;;;;24.38;35.56;95228.44;4974771;28;7457;-61
2022/03/20 08:39:06;;;;;;;;;;;;;;;24.40;35.49;95223.22;4969879;28;6857;-62
2022/03/20 08:41:34;;;;;;;;;;;;;;;24.44;35.43;95228.53;4972720;28;7479;-61
2022/03/20 08:44:08;;;;;;;;;;;;;;;24.45;35.81;95230.78;4970570;28;7274;-61
2022/03/20 08:46:34;;;;;;;;;;;;;;;24.45;35.33;95238.25;4969274;28;7660;-61
2022/03/20 08:49:09;;;;;;;;;;;;;;;24.43;35.94;95238.75;4973721;28;7424;-61
2022/03/20 08:51:55;;;;;;;;;;;;;;;24.40;36.54;95239.72;4973961;28;7912;-61
2022/03/20 08:54:22;;;;;;;;;;;;;;;24.44;36.11;95253.28;4971972;28;9195;-62
2022/03/20 08:56:50;;;;;;;;;;;;;;;24.45;35.94;95247.28;4976263;28;9148;-62
2022/03/20 08:59:16;;;;;;;;;;;;;;;24.37;35.79;95235.19;4960042;28;7625;-62
2022/03/20 09:01:42;;;;;;;;;;;;;;;24.44;35.98;95250.53;4962538;28;9347;-62
2022/03/20 09:04:10;;;;;;;;;;;;;;;24.44;35.79;95247.78;4962541;28;7296;-62
2022/03/20 09:06:37;;;;;;;;;;;;;;;24.44;36.58;95243.03;4967240;28;9076;-62
2022/03/20 09:09:03;;;;;;;;;;;;;;;24.44;36.41;95251.28;4975538;28;9102;-62
2022/03/20 09:11:29;;;;;;;;;;;;;;;24.42;36.26;95253.00;4964754;28;9000;-61
2022/03/20 09:13:55;;;;;;;;;;;;;;;24.43;36.73;95252.50;4965704;28;7093;-62
2022/03/20 09:19:08;;;;;;;;;;;;;;;24.44;36.44;95256.78;4962892;28;7255;-62
2022/03/20 09:21:37;;;;;;;;;;;;;;;24.46;35.83;95254.31;4964160;28;7863;-61
2022/03/20 09:24:05;;;;;;;;;;;;;;;24.46;35.49;95254.31;4981226;28;7153;-61
2022/03/20 09:26:32;;;;;;;;;;;;;;;24.50;34.60;95248.59;4964241;28;7091;-62
2022/03/20 09:28:58;;;;;;;;;;;;;;;24.46;34.79;95246.06;4980862;28;8855;-62
2022/03/20 09:31:26;;;;;;;;;;;;;;;24.46;34.89;95254.31;4980331;28;9987;-62
2022/03/20 09:33:53;;;;;;;;;;;;;;;24.44;35.33;95256.03;4966483;28;9133;-61
2022/03/20 09:36:19;;;;;;;;;;;;;;;24.45;35.10;95252.03;4957941;28;7001;-61
2022/03/20 09:38:45;;;;;;;;;;;;;;;24.47;35.11;95249.53;4976303;28;9095;-62
2022/03/20 09:41:11;;;;;;;;;;;;;;;24.46;35.40;95248.81;4959178;28;8792;-62
2022/03/20 09:43:44;;;;;;;;;;;;;;;24.42;35.27;95245.50;4963584;28;9121;-62
2022/03/20 09:46:13;;;;;;;;;;;;;;;24.48;35.02;95257.31;4976790;28;8704;-62
2022/03/20 09:48:44;;;;;;;;;;;;;;;24.47;35.22;95250.31;4986030;28;9164;-61
2022/03/20 09:51:10;;;;;;;;;;;;;;;24.45;34.67;95249.28;4963210;28;9120;-61
2022/03/20 09:53:36;;;;;;;;;;;;;;;24.45;34.23;95249.28;4965297;28;7078;-61
2022/03/20 09:56:05;;;;;;;;;;;;;;;24.43;33.95;95249.00;4961733;28;7239;-61
2022/03/20 09:58:33;;;;;;;;;;;;;;;24.42;33.17;95248.25;4977021;28;9369;-61
2022/03/20 10:01:01;;;;;;;;;;;;;;;24.45;32.95;95246.50;4959240;28;7389;-61
2022/03/20 10:03:27;;;;;;;;;;;;;;;24.45;32.87;95241.78;4957279;28;6865;-62
2022/03/20 10:06:17;;;;;;;;;;;;;;;24.46;32.00;95237.03;4978398;28;7245;-61
2022/03/20 10:09:04;;;;;;;;;;;;;;;24.45;31.65;95235.50;4977378;28;8220;-62
2022/03/20 10:11:37;;;;;;;;;;;;;;;24.45;31.72;95243.75;4982018;28;7274;-61
2022/03/20 10:14:15;;;;;;;;;;;;;;;24.46;31.21;95242.53;4980843;28;9177;-62
2022/03/20 10:16:44;;;;;;;;;;;;;;;24.44;30.70;95240.28;4974172;28;9131;-62
2022/03/20 10:19:23;;;;;;;;;;;;;;;24.43;30.79;95247.00;4974781;28;9449;-61
2022/03/20 10:21:59;;;;;;;;;;;;;;;24.43;30.54;95252.50;4974484;28;7069;-61
2022/03/20 10:24:27;;;;;;;;;;;;;;;24.45;31.19;95244.53;4968538;28;9508;-61
2022/03/20 10:26:59;;;;;;;;;;;;;;;24.44;30.47;95245.78;4971493;28;7277;-61
2022/03/20 10:29:30;;;;;;;;;;;;;;;24.43;31.17;95244.25;4984520;28;7014;-61
2022/03/20 10:32:04;;;;;;;;;;;;;;;24.43;31.38;95247.00;4967508;28;9716;-61
2022/03/20 10:34:54;;;;;;;;;;;;;;;24.45;31.17;95252.03;4970934;28;9024;-61
2022/03/20 10:37:43;;;;;;;;;;;;;;;24.46;31.61;95248.81;4980241;28;7549;-61
2022/03/20 10:40:12;;;;;;;;;;;;;;;24.47;31.21;95244.03;4988434;28;7262;-61
2022/03/20 10:42:41;;;;;;;;;;;;;;;24.49;31.75;95242.31;4979828;28;9250;-61
2022/03/20 10:45:11;;;;;;;;;;;;;;;24.49;31.62;95239.56;4980255;28;8453;-61
2022/03/20 10:47:46;;;;;;;;;;;;;;;24.50;32.27;95249.34;4974250;28;7262;-61
2022/03/20 10:50:12;;;;;;;;;;;;;;;24.52;32.33;95235.09;4969140;28;8996;-60
2022/03/20 10:53:08;;;;;;;;;;;;;;;24.53;32.36;95237.38;4977195;28;9108;-61
2022/03/20 10:55:34;;;;;;;;;;;;;;;24.52;32.74;95241.38;4946059;28;7104;-61
2022/03/20 10:58:20;;;;;;;;;;;;;;;24.51;33.50;95244.59;4948698;28;7183;-61
2022/03/20 11:00:46;;;;;;;;;;;;;;;24.48;33.03;95235.31;4936774;28;7027;-61
2022/03/20 11:03:49;;;;;;;;;;;;;;;24.50;33.62;95237.59;4951275;28;9070;-61
2022/03/20 11:06:25;;;;;;;;;;;;;;;24.49;33.27;95234.06;4886187;29;7420;-61
2022/03/20 11:08:52;;;;;;;;;;;;;;;24.49;33.96;95236.81;4882987;29;9520;-61
2022/03/20 11:11:20;;;;;;;;;;;;;;;24.51;33.90;95239.09;4871403;29;7145;-61
2022/03/20 11:13:48;;;;;;;;;;;;;;;24.55;34.01;95243.16;4885903;29;8785;-61
2022/03/20 11:16:18;;;;;;;;;;;;;;;24.55;33.69;95237.66;4883529;29;9047;-61
2022/03/20 11:18:51;;;;;;;;;;;;;;;24.57;33.91;95239.91;4894995;29;9202;-62
2022/03/20 11:21:23;;;;;;;;;;;;;;;24.59;33.94;95234.69;4877419;29;7109;-62
2022/03/20 11:23:53;;;;;;;;;;;;;;;24.61;34.57;95243.22;4865286;29;7932;-62
2022/03/20 11:26:26;;;;;;;;;;;;;;;24.57;34.49;95226.94;4881233;29;7217;-62
2022/03/20 11:29:01;;;;;;;;;;;;;;;24.60;34.57;95236.94;4893122;29;9101;-62
2022/03/20 11:31:34;;;;;;;;;;;;;;;24.60;34.74;95242.44;4897580;29;8829;-62
2022/03/20 11:34:06;;;;;;;;;;;;;;;24.64;35.14;95240.25;4911572;29;7370;-62
2022/03/20 11:37:05;;;;;;;;;;;;;;;24.66;35.21;95237.75;4907743;29;7187;-62
2022/03/20 11:39:31;;;;;;;;;;;;;;;24.64;34.98;95229.22;4906645;28;9060;-62
2022/03/20 11:42:25;;;;;;;;;;;;;;;24.66;35.08;95229.50;4968614;28;8746;-63
2022/03/20 11:44:59;;;;;;;;;;;;;;;24.69;35.19;95225.78;4977425;28;7009;-62
2022/03/20 11:47:29;;;;;;;;;;;;;;;24.68;35.07;95221.53;4969548;28;9082;-62
2022/03/20 11:50:21;;;;;;;;;;;;;;;24.73;34.92;95224.84;4985781;28;7226;-62
2022/03/20 11:52:48;;;;;;;;;;;;;;;24.74;35.27;95227.09;4962368;28;7237;-62
2022/03/20 11:55:29;;;;;;;;;;;;;;;24.77;35.46;95222.66;4964068;28;9094;-62
2022/03/20 11:57:57;;;;;;;;;;;;;;;24.80;35.22;95225.19;4986089;28;9325;-61
2022/03/20 12:00:36;;;;;;;;;;;;;;;24.83;35.38;95226.22;4985047;28;9096;-61
2022/03/20 12:03:13;;;;;;;;;;;;;;;24.83;35.78;95213.22;4970954;28;7279;-62
2022/03/20 12:05:56;;;;;;;;;;;;;;;24.90;35.47;95220.28;4973819;28;7107;-61
2022/03/20 12:08:34;;;;;;;;;;;;;;;24.94;35.65;95218.06;4971917;28;8184;-62
2022/03/20 12:10:59;;;;;;;;;;;;;;;24.94;35.14;95213.31;4989333;28;7417;-62
2022/03/20 12:14:03;;;;;;;;;;;;;;;24.98;35.34;95215.84;4978514;28;9187;-62
2022/03/20 12:16:45;;;;;;;;;;;;;;;25.00;35.43;95218.84;4971783;28;9473;-61
2022/03/20 12:19:18;;;;;;;;;;;;;;;25.01;34.94;95209.38;4978360;28;7120;-61
2022/03/20 12:22:00;;;;;;;;;;;;;;;25.02;34.83;95216.38;4973526;28;9051;-61
2022/03/20 12:25:01;;;;;;;;;;;;;;;25.01;34.96;95203.88;4988700;28;9726;-62
2022/03/20 12:27:27;;;;;;;;;;;;;;;25.01;34.68;95203.88;4926867;28;9071;-61
2022/03/20 12:30:13;;;;;;;;;;;;;;;25.02;34.67;95203.38;4933931;28;6848;-62
2022/03/20 12:32:58;;;;;;;;;;;;;;;25.04;34.78;95202.88;4951445;28;8458;-62
2022/03/20 12:35:41;;;;;;;;;;;;;;;25.04;34.73;95203.63;4917073;28;9077;-62
2022/03/20 12:38:07;;;;;;;;;;;;;;;25.05;34.15;95198.91;4927608;28;7280;-61
2022/03/20 12:40:38;;;;;;;;;;;;;;;25.03;34.09;95188.38;4947415;28;9184;-62
2022/03/20 12:43:10;;;;;;;;;;;;;;;25.04;33.83;95203.63;4934298;28;7302;-63
2022/03/20 12:45:40;;;;;;;;;;;;;;;25.04;33.87;95191.88;4930393;28;9069;-63
2022/03/20 12:48:10;;;;;;;;;;;;;;;25.04;33.76;95184.38;4948207;28;9057;-63
2022/03/20 12:50:40;;;;;;;;;;;;;;;24.99;34.01;95185.06;4945612;28;8048;-63
2022/03/20 12:53:16;;;;;;;;;;;;;;;25.02;34.09;95188.84;4933112;28;7070;-63
2022/03/20 12:55:52;;;;;;;;;;;;;;;25.03;34.10;95187.63;4930265;29;9272;-62
2022/03/20 12:58:22;;;;;;;;;;;;;;;25.03;34.40;95191.13;4946436;28;9124;-63
2022/03/20 13:00:49;;;;;;;;;;;;;;;25.05;33.99;95182.38;4941262;28;6937;-63
2022/03/20 13:03:20;;;;;;;;;;;;;;;25.06;34.38;95181.13;4959466;28;8690;-62
2022/03/20 13:06:03;;;;;;;;;;;;;;;25.09;33.96;95177.41;4988294;28;7230;-62
2022/03/20 13:08:46;;;;;;;;;;;;;;;25.13;34.18;95172.44;4972849;28;7271;-63
2022/03/20 13:14:13;;;;;;;;;;;;;;;25.16;34.17;95165.94;4968053;28;9108;-63
2022/03/20 13:16:53;;;;;;;;;;;;;;;25.18;34.00;95169.72;4987454;28;8783;-63
2022/03/20 13:19:37;;;;;;;;;;;;;;;25.19;34.30;95173.22;4975685;28;8257;-63
2022/03/20 13:22:08;;;;;;;;;;;;;;;25.23;33.80;95173.75;4986348;28;9462;-63
2022/03/20 13:24:45;;;;;;;;;;;;;;;25.25;34.30;95174.75;4982211;28;9114;-63
2022/03/20 13:27:13;;;;;;;;;;;;;;;25.26;33.96;95165.28;4966969;28;7285;-63
2022/03/20 13:29:56;;;;;;;;;;;;;;;25.26;34.06;95164.50;4972450;28;9037;-62
2022/03/20 13:32:25;;;;;;;;;;;;;;;25.24;33.83;95158.75;4973900;28;9105;-63
2022/03/20 13:34:52;;;;;;;;;;;;;;;25.31;33.87;95163.81;4971257;28;8963;-63
2022/03/20 13:37:18;;;;;;;;;;;;;;;25.33;33.36;95167.59;4969988;28;9483;-62
2022/03/20 13:39:55;;;;;;;;;;;;;;;25.32;33.69;95159.78;4971406;28;9223;-63
2022/03/20 13:42:25;;;;;;;;;;;;;;;25.35;33.66;95156.84;4971878;28;8805;-63
2022/03/20 13:44:54;;;;;;;;;;;;;;;25.39;33.89;95159.34;4987068;28;9463;-63
2022/03/20 13:47:21;;;;;;;;;;;;;;;25.41;33.65;95162.38;4978858;28;7747;-63
2022/03/20 13:49:54;;;;;;;;;;;;;;;25.41;33.67;95154.88;4993420;28;9754;-62
2022/03/20 13:52:52;;;;;;;;;;;;;;;25.46;33.96;95158.94;4973482;28;8476;-64